sensor_id;sensor_type;location;lat;lon;timestamp;temperature;humidity
18575;DHT22;9417;16.484;102.872;2022-09-28T00:00:15;25.80;99.90
18575;DHT22;9417;16.484;102.872;2022-09-28T00:02:22;25.80;99.90
18575;DHT22;9417;16.484;102.872;2022-09-28T00:04:30;25.80;99.90
18575;DHT22;9417;16.484;102.872;2022-09-28T00:06:38;25.80;99.90
18575;DHT22;9417;16.484;102.872;2022-09-28T00:08:46;25.80;99.90
18575;DHT22;9417;16.484;102.872;2022-09-28T00:10:57;25.80;99.90
18575;DHT22;9417;16.484;102.872;2022-09-28T00:13:06;25.80;99.90
18575;DHT22;9417;16.484;102.872;2022-09-28T00:15:13;25.70;99.90
18575;DHT22;9417;16.484;102.872;2022-09-28T00:17:20;25.70;99.90
18575;DHT22;9417;16.484;102.872;2022-09-28T00:19:27;25.70;99.90
18575;DHT22;9417;16.484;102.872;2022-09-28T00:21:35;25.70;99.90
18575;DHT22;9417;16.484;102.872;2022-09-28T00:23:43;25.70;99.90
18575;DHT22;9417;16.484;102.872;2022-09-28T00:26:03;25.80;99.90
18575;DHT22;9417;16.484;102.872;2022-09-28T00:28:13;25.70;99.90
18575;DHT22;9417;16.484;102.872;2022-09-28T00:30:20;25.70;99.90
18575;DHT22;9417;16.484;102.872;2022-09-28T00:32:26;25.70;99.90
18575;DHT22;9417;16.484;102.872;2022-09-28T00:34:35;25.70;99.90
18575;DHT22;9417;16.484;102.872;2022-09-28T00:36:45;25.80;99.90
18575;DHT22;9417;16.484;102.872;2022-09-28T00:38:53;25.80;99.90
18575;DHT22;9417;16.484;102.872;2022-09-28T00:41:00;25.80;99.90
18575;DHT22;9417;16.484;102.872;2022-09-28T00:43:20;25.80;99.90
18575;DHT22;9417;16.484;102.872;2022-09-28T00:45:27;25.80;99.90
18575;DHT22;9417;16.484;102.872;2022-09-28T00:47:41;25.80;99.90
18575;DHT22;9417;16.484;102.872;2022-09-28T00:49:53;25.90;99.90
18575;DHT22;9417;16.484;102.872;2022-09-28T00:52:02;25.90;99.90
18575;DHT22;9417;16.484;102.872;2022-09-28T00:54:12;25.90;99.90
18575;DHT22;9417;16.484;102.872;2022-09-28T00:56:22;25.90;99.90
18575;DHT22;9417;16.484;102.872;2022-09-28T00:58:34;25.90;99.90
18575;DHT22;9417;16.484;102.872;2022-09-28T01:00:41;25.90;99.90
18575;DHT22;9417;16.484;102.872;2022-09-28T01:02:48;25.90;99.90
18575;DHT22;9417;16.484;102.872;2022-09-28T01:04:57;25.90;99.90
18575;DHT22;9417;16.484;102.872;2022-09-28T01:07:06;25.90;99.90
18575;DHT22;9417;16.484;102.872;2022-09-28T01:09:14;25.90;99.90
18575;DHT22;9417;16.484;102.872;2022-09-28T01:11:21;25.90;99.90
18575;DHT22;9417;16.484;102.872;2022-09-28T01:13:32;25.90;99.90
18575;DHT22;9417;16.484;102.872;2022-09-28T01:15:42;25.90;99.90
18575;DHT22;9417;16.484;102.872;2022-09-28T01:18:00;25.90;99.90
18575;DHT22;9417;16.484;102.872;2022-09-28T01:20:37;25.90;99.90
18575;DHT22;9417;16.484;102.872;2022-09-28T01:25:40;25.90;99.90
18575;DHT22;9417;16.484;102.872;2022-09-28T01:27:56;26.00;99.90
18575;DHT22;9417;16.484;102.872;2022-09-28T01:30:06;25.90;99.90
18575;DHT22;9417;16.484;102.872;2022-09-28T01:32:20;26.00;99.90
18575;DHT22;9417;16.484;102.872;2022-09-28T01:34:32;25.90;99.90
18575;DHT22;9417;16.484;102.872;2022-09-28T01:36:45;26.00;99.90
18575;DHT22;9417;16.484;102.872;2022-09-28T01:38:56;26.00;99.90
18575;DHT22;9417;16.484;102.872;2022-09-28T01:41:06;26.00;99.90
18575;DHT22;9417;16.484;102.872;2022-09-28T01:43:17;26.00;99.90
18575;DHT22;9417;16.484;102.872;2022-09-28T01:45:27;26.00;99.90
18575;DHT22;9417;16.484;102.872;2022-09-28T01:47:38;26.00;99.90
18575;DHT22;9417;16.484;102.872;2022-09-28T01:49:48;26.10;99.90
18575;DHT22;9417;16.484;102.872;2022-09-28T01:52:01;26.00;99.90
18575;DHT22;9417;16.484;102.872;2022-09-28T01:54:12;26.10;99.90
18575;DHT22;9417;16.484;102.872;2022-09-28T01:56:25;26.00;99.90
18575;DHT22;9417;16.484;102.872;2022-09-28T01:58:37;26.00;99.90
18575;DHT22;9417;16.484;102.872;2022-09-28T02:00:49;26.00;99.90
18575;DHT22;9417;16.484;102.872;2022-09-28T02:03:04;26.00;99.90
18575;DHT22;9417;16.484;102.872;2022-09-28T02:05:20;26.00;99.90
18575;DHT22;9417;16.484;102.872;2022-09-28T02:07:33;26.00;99.90
18575;DHT22;9417;16.484;102.872;2022-09-28T02:09:45;26.00;99.90
18575;DHT22;9417;16.484;102.872;2022-09-28T02:11:57;26.00;99.90
18575;DHT22;9417;16.484;102.872;2022-09-28T02:14:35;26.00;99.90
18575;DHT22;9417;16.484;102.872;2022-09-28T02:16:44;26.00;99.90
18575;DHT22;9417;16.484;102.872;2022-09-28T02:18:58;26.00;99.90
18575;DHT22;9417;16.484;102.872;2022-09-28T02:21:12;26.10;99.90
18575;DHT22;9417;16.484;102.872;2022-09-28T02:23:22;26.10;99.90
18575;DHT22;9417;16.484;102.872;2022-09-28T02:25:35;26.10;99.90
18575;DHT22;9417;16.484;102.872;2022-09-28T02:27:51;26.10;99.90
18575;DHT22;9417;16.484;102.872;2022-09-28T02:30:01;26.10;99.90
18575;DHT22;9417;16.484;102.872;2022-09-28T02:32:08;26.10;99.90
18575;DHT22;9417;16.484;102.872;2022-09-28T02:34:16;26.10;99.90
18575;DHT22;9417;16.484;102.872;2022-09-28T02:36:24;26.10;99.90
18575;DHT22;9417;16.484;102.872;2022-09-28T02:38:33;26.20;99.90
18575;DHT22;9417;16.484;102.872;2022-09-28T02:40:42;26.20;99.90
18575;DHT22;9417;16.484;102.872;2022-09-28T02:42:55;26.20;99.90
18575;DHT22;9417;16.484;102.872;2022-09-28T02:45:14;26.20;99.90
18575;DHT22;9417;16.484;102.872;2022-09-28T02:47:35;26.20;99.90
18575;DHT22;9417;16.484;102.872;2022-09-28T02:49:49;26.20;99.90
18575;DHT22;9417;16.484;102.872;2022-09-28T02:52:20;26.10;99.90
18575;DHT22;9417;16.484;102.872;2022-09-28T02:54:50;26.20;99.90
18575;DHT22;9417;16.484;102.872;2022-09-28T02:57:15;26.10;99.90
18575;DHT22;9417;16.484;102.872;2022-09-28T02:59:27;26.10;99.90
18575;DHT22;9417;16.484;102.872;2022-09-28T03:01:49;26.10;99.90
18575;DHT22;9417;16.484;102.872;2022-09-28T03:04:08;26.10;99.90
18575;DHT22;9417;16.484;102.872;2022-09-28T03:06:23;26.10;99.90
18575;DHT22;9417;16.484;102.872;2022-09-28T03:08:35;26.10;99.90
18575;DHT22;9417;16.484;102.872;2022-09-28T03:10:49;26.10;99.90
18575;DHT22;9417;16.484;102.872;2022-09-28T03:13:00;26.10;99.90
18575;DHT22;9417;16.484;102.872;2022-09-28T03:15:11;26.20;99.90
18575;DHT22;9417;16.484;102.872;2022-09-28T03:17:22;26.10;99.90
18575;DHT22;9417;16.484;102.872;2022-09-28T03:47:06;25.70;99.90
18575;DHT22;9417;16.484;102.872;2022-09-28T03:49:14;25.70;99.90
18575;DHT22;9417;16.484;102.872;2022-09-28T03:51:20;25.80;99.90
18575;DHT22;9417;16.484;102.872;2022-09-28T03:53:29;25.80;99.90
18575;DHT22;9417;16.484;102.872;2022-09-28T03:55:36;25.80;99.90
18575;DHT22;9417;16.484;102.872;2022-09-28T03:57:46;25.90;99.90
18575;DHT22;9417;16.484;102.872;2022-09-28T03:59:58;25.90;99.90
18575;DHT22;9417;16.484;102.872;2022-09-28T04:02:06;25.90;99.90
18575;DHT22;9417;16.484;102.872;2022-09-28T04:04:14;25.90;99.90
18575;DHT22;9417;16.484;102.872;2022-09-28T04:06:21;25.90;99.90
18575;DHT22;9417;16.484;102.872;2022-09-28T04:10:46;25.80;99.90
18575;DHT22;9417;16.484;102.872;2022-09-28T04:12:54;25.80;99.90
18575;DHT22;9417;16.484;102.872;2022-09-28T04:15:02;25.90;99.90
18575;DHT22;9417;16.484;102.872;2022-09-28T04:17:09;25.90;99.90
18575;DHT22;9417;16.484;102.872;2022-09-28T04:19:16;25.90;99.90
18575;DHT22;9417;16.484;102.872;2022-09-28T04:21:42;25.90;99.90
18575;DHT22;9417;16.484;102.872;2022-09-28T04:23:50;25.90;99.90
18575;DHT22;9417;16.484;102.872;2022-09-28T04:25:59;25.90;99.90
18575;DHT22;9417;16.484;102.872;2022-09-28T04:28:08;26.00;99.90
18575;DHT22;9417;16.484;102.872;2022-09-28T04:30:31;26.00;99.90
18575;DHT22;9417;16.484;102.872;2022-09-28T04:32:39;26.10;99.90
18575;DHT22;9417;16.484;102.872;2022-09-28T04:34:46;26.10;99.90
18575;DHT22;9417;16.484;102.872;2022-09-28T04:36:53;26.10;99.90
18575;DHT22;9417;16.484;102.872;2022-09-28T04:39:00;26.20;99.90
18575;DHT22;9417;16.484;102.872;2022-09-28T04:41:10;26.20;99.90
18575;DHT22;9417;16.484;102.872;2022-09-28T04:43:17;26.20;99.90
18575;DHT22;9417;16.484;102.872;2022-09-28T04:45:24;26.20;99.90
18575;DHT22;9417;16.484;102.872;2022-09-28T04:47:38;26.20;99.90
18575;DHT22;9417;16.484;102.872;2022-09-28T04:50:05;26.20;99.90
18575;DHT22;9417;16.484;102.872;2022-09-28T04:52:34;26.20;99.90
18575;DHT22;9417;16.484;102.872;2022-09-28T04:54:42;26.30;99.90
18575;DHT22;9417;16.484;102.872;2022-09-28T04:56:50;26.40;99.90
18575;DHT22;9417;16.484;102.872;2022-09-28T04:58:58;26.30;99.90
18575;DHT22;9417;16.484;102.872;2022-09-28T05:01:07;26.40;99.90
18575;DHT22;9417;16.484;102.872;2022-09-28T05:03:27;26.40;99.90
18575;DHT22;9417;16.484;102.872;2022-09-28T05:05:47;26.40;99.90
18575;DHT22;9417;16.484;102.872;2022-09-28T05:08:06;26.40;99.90
18575;DHT22;9417;16.484;102.872;2022-09-28T05:10:16;26.30;99.90
18575;DHT22;9417;16.484;102.872;2022-09-28T05:12:25;26.30;99.90
18575;DHT22;9417;16.484;102.872;2022-09-28T05:14:32;26.30;99.90
18575;DHT22;9417;16.484;102.872;2022-09-28T05:16:40;26.30;99.90
18575;DHT22;9417;16.484;102.872;2022-09-28T05:19:07;26.30;99.90
18575;DHT22;9417;16.484;102.872;2022-09-28T05:21:17;26.30;99.90
18575;DHT22;9417;16.484;102.872;2022-09-28T05:23:24;26.30;99.90
18575;DHT22;9417;16.484;102.872;2022-09-28T05:25:33;26.30;99.90
18575;DHT22;9417;16.484;102.872;2022-09-28T05:27:56;26.30;99.90
18575;DHT22;9417;16.484;102.872;2022-09-28T05:30:17;26.30;99.90
18575;DHT22;9417;16.484;102.872;2022-09-28T05:32:45;26.30;99.90
18575;DHT22;9417;16.484;102.872;2022-09-28T05:35:12;26.40;99.90
18575;DHT22;9417;16.484;102.872;2022-09-28T05:37:21;26.40;99.90
18575;DHT22;9417;16.484;102.872;2022-09-28T05:39:28;26.40;99.90
18575;DHT22;9417;16.484;102.872;2022-09-28T05:41:35;26.40;99.90
18575;DHT22;9417;16.484;102.872;2022-09-28T05:43:44;26.40;99.90
18575;DHT22;9417;16.484;102.872;2022-09-28T05:45:51;26.50;99.90
18575;DHT22;9417;16.484;102.872;2022-09-28T05:47:58;26.50;99.90
18575;DHT22;9417;16.484;102.872;2022-09-28T05:50:07;26.50;99.40
18575;DHT22;9417;16.484;102.872;2022-09-28T05:52:15;26.60;99.00
18575;DHT22;9417;16.484;102.872;2022-09-28T05:54:23;26.60;99.40
18575;DHT22;9417;16.484;102.872;2022-09-28T05:56:30;26.60;99.90
18575;DHT22;9417;16.484;102.872;2022-09-28T05:58:39;26.70;99.70
18575;DHT22;9417;16.484;102.872;2022-09-28T06:00:54;26.60;99.30
18575;DHT22;9417;16.484;102.872;2022-09-28T06:03:02;26.60;99.50
18575;DHT22;9417;16.484;102.872;2022-09-28T06:05:12;26.70;98.50
18575;DHT22;9417;16.484;102.872;2022-09-28T06:07:20;26.70;98.80
18575;DHT22;9417;16.484;102.872;2022-09-28T06:09:27;26.70;98.80
18575;DHT22;9417;16.484;102.872;2022-09-28T06:11:37;26.70;99.00
18575;DHT22;9417;16.484;102.872;2022-09-28T06:13:53;26.70;98.40
18575;DHT22;9417;16.484;102.872;2022-09-28T06:16:05;26.70;98.80
18575;DHT22;9417;16.484;102.872;2022-09-28T06:18:14;26.60;98.90
18575;DHT22;9417;16.484;102.872;2022-09-28T06:20:41;26.60;98.40
18575;DHT22;9417;16.484;102.872;2022-09-28T06:22:51;26.60;98.40
18575;DHT22;9417;16.484;102.872;2022-09-28T06:24:58;26.60;98.40
18575;DHT22;9417;16.484;102.872;2022-09-28T06:27:04;26.60;97.90
18575;DHT22;9417;16.484;102.872;2022-09-28T06:29:12;26.70;98.00
18575;DHT22;9417;16.484;102.872;2022-09-28T06:31:24;26.70;97.60
18575;DHT22;9417;16.484;102.872;2022-09-28T06:33:33;26.70;97.90
18575;DHT22;9417;16.484;102.872;2022-09-28T06:35:42;26.70;97.90
18575;DHT22;9417;16.484;102.872;2022-09-28T06:37:49;26.70;98.20
18575;DHT22;9417;16.484;102.872;2022-09-28T06:39:55;26.70;98.10
18575;DHT22;9417;16.484;102.872;2022-09-28T06:42:02;26.70;98.20
18575;DHT22;9417;16.484;102.872;2022-09-28T06:44:22;26.70;98.10
18575;DHT22;9417;16.484;102.872;2022-09-28T06:46:43;26.60;98.10
18575;DHT22;9417;16.484;102.872;2022-09-28T06:49:09;26.70;97.40
18575;DHT22;9417;16.484;102.872;2022-09-28T06:51:41;26.60;97.20
18575;DHT22;9417;16.484;102.872;2022-09-28T06:53:55;26.60;96.80
18575;DHT22;9417;16.484;102.872;2022-09-28T06:56:14;26.60;97.00
18575;DHT22;9417;16.484;102.872;2022-09-28T06:58:22;26.60;97.20
18575;DHT22;9417;16.484;102.872;2022-09-28T07:00:34;26.60;97.50
18575;DHT22;9417;16.484;102.872;2022-09-28T07:02:44;26.60;97.50
18575;DHT22;9417;16.484;102.872;2022-09-28T07:05:12;26.50;97.70
18575;DHT22;9417;16.484;102.872;2022-09-28T07:07:32;26.50;96.90
18575;DHT22;9417;16.484;102.872;2022-09-28T07:09:55;26.40;97.40
18575;DHT22;9417;16.484;102.872;2022-09-28T07:12:14;26.40;96.70
18575;DHT22;9417;16.484;102.872;2022-09-28T07:14:32;26.40;96.90
18575;DHT22;9417;16.484;102.872;2022-09-28T07:16:50;26.40;97.10
18575;DHT22;9417;16.484;102.872;2022-09-28T07:19:18;26.40;96.60
18575;DHT22;9417;16.484;102.872;2022-09-28T07:21:25;26.40;96.70
18575;DHT22;9417;16.484;102.872;2022-09-28T07:23:37;26.40;97.00
18575;DHT22;9417;16.484;102.872;2022-09-28T07:26:03;26.40;96.90
18575;DHT22;9417;16.484;102.872;2022-09-28T07:28:25;26.40;97.10
18575;DHT22;9417;16.484;102.872;2022-09-28T07:30:56;26.30;96.00
18575;DHT22;9417;16.484;102.872;2022-09-28T07:33:15;26.40;95.80
18575;DHT22;9417;16.484;102.872;2022-09-28T07:35:29;26.40;95.10
18575;DHT22;9417;16.484;102.872;2022-09-28T07:37:38;26.40;95.70
18575;DHT22;9417;16.484;102.872;2022-09-28T07:39:45;26.40;95.80
18575;DHT22;9417;16.484;102.872;2022-09-28T07:42:11;26.40;95.90
18575;DHT22;9417;16.484;102.872;2022-09-28T07:44:19;26.30;96.00
18575;DHT22;9417;16.484;102.872;2022-09-28T07:46:29;26.30;95.90
18575;DHT22;9417;16.484;102.872;2022-09-28T07:48:42;26.30;96.30
18575;DHT22;9417;16.484;102.872;2022-09-28T07:51:11;26.30;95.90
18575;DHT22;9417;16.484;102.872;2022-09-28T07:53:25;26.20;95.50
18575;DHT22;9417;16.484;102.872;2022-09-28T07:55:50;26.30;95.30
18575;DHT22;9417;16.484;102.872;2022-09-28T07:58:09;26.20;95.70
18575;DHT22;9417;16.484;102.872;2022-09-28T08:00:28;26.20;95.90
18575;DHT22;9417;16.484;102.872;2022-09-28T08:02:37;26.20;96.20
18575;DHT22;9417;16.484;102.872;2022-09-28T08:04:44;26.10;96.50
18575;DHT22;9417;16.484;102.872;2022-09-28T08:06:53;26.10;96.80
18575;DHT22;9417;16.484;102.872;2022-09-28T08:09:00;26.10;97.10
18575;DHT22;9417;16.484;102.872;2022-09-28T08:11:20;26.00;97.30
18575;DHT22;9417;16.484;102.872;2022-09-28T08:13:41;26.00;97.70
18575;DHT22;9417;16.484;102.872;2022-09-28T08:16:03;25.90;98.00
18575;DHT22;9417;16.484;102.872;2022-09-28T08:18:24;25.90;98.30
18575;DHT22;9417;16.484;102.872;2022-09-28T08:20:31;25.90;98.70
18575;DHT22;9417;16.484;102.872;2022-09-28T08:23:02;25.90;99.30
18575;DHT22;9417;16.484;102.872;2022-09-28T08:25:11;25.90;99.70
18575;DHT22;9417;16.484;102.872;2022-09-28T08:27:18;25.90;99.90
18575;DHT22;9417;16.484;102.872;2022-09-28T08:29:25;25.90;99.90
18575;DHT22;9417;16.484;102.872;2022-09-28T08:31:51;25.80;99.90
18575;DHT22;9417;16.484;102.872;2022-09-28T08:34:10;25.90;99.90
18575;DHT22;9417;16.484;102.872;2022-09-28T08:36:29;25.90;99.90
18575;DHT22;9417;16.484;102.872;2022-09-28T08:38:38;25.80;99.90
18575;DHT22;9417;16.484;102.872;2022-09-28T08:41:10;25.80;99.90
18575;DHT22;9417;16.484;102.872;2022-09-28T08:44:02;25.80;99.90
18575;DHT22;9417;16.484;102.872;2022-09-28T08:46:30;25.80;99.90
18575;DHT22;9417;16.484;102.872;2022-09-28T08:48:59;25.80;99.90
18575;DHT22;9417;16.484;102.872;2022-09-28T08:51:43;25.80;99.90
18575;DHT22;9417;16.484;102.872;2022-09-28T08:54:16;25.90;99.90
18575;DHT22;9417;16.484;102.872;2022-09-28T08:56:33;25.90;99.90
18575;DHT22;9417;16.484;102.872;2022-09-28T08:58:45;25.90;99.90
18575;DHT22;9417;16.484;102.872;2022-09-28T09:00:54;25.90;99.90
18575;DHT22;9417;16.484;102.872;2022-09-28T09:03:05;25.90;99.90
18575;DHT22;9417;16.484;102.872;2022-09-28T09:05:15;25.90;99.90
18575;DHT22;9417;16.484;102.872;2022-09-28T09:07:56;25.90;99.90
18575;DHT22;9417;16.484;102.872;2022-09-28T09:10:16;25.90;99.90
18575;DHT22;9417;16.484;102.872;2022-09-28T09:12:34;25.80;99.90
18575;DHT22;9417;16.484;102.872;2022-09-28T09:17:42;25.80;99.90
18575;DHT22;9417;16.484;102.872;2022-09-28T09:20:18;25.80;99.90
18575;DHT22;9417;16.484;102.872;2022-09-28T09:22:39;25.80;99.90
18575;DHT22;9417;16.484;102.872;2022-09-28T09:24:49;25.70;99.90
18575;DHT22;9417;16.484;102.872;2022-09-28T09:27:05;25.70;99.90
18575;DHT22;9417;16.484;102.872;2022-09-28T09:29:28;25.70;99.90
18575;DHT22;9417;16.484;102.872;2022-09-28T09:32:01;25.80;99.90
18575;DHT22;9417;16.484;102.872;2022-09-28T09:34:30;25.80;99.90
18575;DHT22;9417;16.484;102.872;2022-09-28T09:37:01;25.80;99.90
18575;DHT22;9417;16.484;102.872;2022-09-28T09:39:34;25.70;99.90
18575;DHT22;9417;16.484;102.872;2022-09-28T09:42:16;25.70;99.90
18575;DHT22;9417;16.484;102.872;2022-09-28T09:47:24;25.70;99.90
18575;DHT22;9417;16.484;102.872;2022-09-28T09:49:44;25.70;99.90
18575;DHT22;9417;16.484;102.872;2022-09-28T09:51:57;25.70;99.90
18575;DHT22;9417;16.484;102.872;2022-09-28T09:54:11;25.70;99.90
18575;DHT22;9417;16.484;102.872;2022-09-28T09:56:29;25.70;99.90
18575;DHT22;9417;16.484;102.872;2022-09-28T09:58:54;25.70;99.90
18575;DHT22;9417;16.484;102.872;2022-09-28T10:01:12;25.60;99.90
18575;DHT22;9417;16.484;102.872;2022-09-28T10:03:35;25.60;99.90
18575;DHT22;9417;16.484;102.872;2022-09-28T10:05:54;25.60;99.90
18575;DHT22;9417;16.484;102.872;2022-09-28T10:08:07;25.60;99.90
18575;DHT22;9417;16.484;102.872;2022-09-28T10:10:21;25.60;99.90
18575;DHT22;9417;16.484;102.872;2022-09-28T10:12:35;25.50;99.90
18575;DHT22;9417;16.484;102.872;2022-09-28T10:14:44;25.50;99.90
18575;DHT22;9417;16.484;102.872;2022-09-28T10:16:52;25.50;99.90
18575;DHT22;9417;16.484;102.872;2022-09-28T10:19:24;25.50;99.90
18575;DHT22;9417;16.484;102.872;2022-09-28T10:21:48;25.50;99.90
18575;DHT22;9417;16.484;102.872;2022-09-28T10:24:00;25.50;99.90
18575;DHT22;9417;16.484;102.872;2022-09-28T10:26:09;25.50;99.90
18575;DHT22;9417;16.484;102.872;2022-09-28T10:28:22;25.40;99.90
18575;DHT22;9417;16.484;102.872;2022-09-28T10:30:37;25.40;99.90
18575;DHT22;9417;16.484;102.872;2022-09-28T10:32:46;25.50;99.90
18575;DHT22;9417;16.484;102.872;2022-09-28T10:35:12;25.40;99.90
18575;DHT22;9417;16.484;102.872;2022-09-28T10:37:21;25.50;99.90
18575;DHT22;9417;16.484;102.872;2022-09-28T10:39:48;25.40;99.90
18575;DHT22;9417;16.484;102.872;2022-09-28T10:41:58;25.40;99.90
18575;DHT22;9417;16.484;102.872;2022-09-28T10:44:17;25.40;99.90
18575;DHT22;9417;16.484;102.872;2022-09-28T10:46:55;25.50;99.90
18575;DHT22;9417;16.484;102.872;2022-09-28T10:49:07;25.50;99.90
18575;DHT22;9417;16.484;102.872;2022-09-28T10:51:20;25.50;99.90
18575;DHT22;9417;16.484;102.872;2022-09-28T10:53:58;25.40;99.90
18575;DHT22;9417;16.484;102.872;2022-09-28T10:56:21;25.50;99.90
18575;DHT22;9417;16.484;102.872;2022-09-28T10:58:37;25.40;99.90
18575;DHT22;9417;16.484;102.872;2022-09-28T11:00:57;25.40;99.90
18575;DHT22;9417;16.484;102.872;2022-09-28T11:03:16;25.40;99.90
18575;DHT22;9417;16.484;102.872;2022-09-28T11:05:25;25.40;99.90
18575;DHT22;9417;16.484;102.872;2022-09-28T11:07:43;25.40;99.90
18575;DHT22;9417;16.484;102.872;2022-09-28T11:09:56;25.40;99.90
18575;DHT22;9417;16.484;102.872;2022-09-28T11:12:07;25.40;99.90
18575;DHT22;9417;16.484;102.872;2022-09-28T11:14:25;25.40;99.90
18575;DHT22;9417;16.484;102.872;2022-09-28T11:16:35;25.40;99.90
18575;DHT22;9417;16.484;102.872;2022-09-28T11:18:44;25.40;99.90
18575;DHT22;9417;16.484;102.872;2022-09-28T11:20:51;25.40;99.90
18575;DHT22;9417;16.484;102.872;2022-09-28T11:23:00;25.40;99.90
18575;DHT22;9417;16.484;102.872;2022-09-28T11:25:22;25.40;99.90
18575;DHT22;9417;16.484;102.872;2022-09-28T11:27:29;25.40;99.90
18575;DHT22;9417;16.484;102.872;2022-09-28T11:29:38;25.40;99.90
18575;DHT22;9417;16.484;102.872;2022-09-28T11:31:59;25.40;99.90
18575;DHT22;9417;16.484;102.872;2022-09-28T11:34:22;25.40;99.90
18575;DHT22;9417;16.484;102.872;2022-09-28T11:39:27;25.30;99.90
18575;DHT22;9417;16.484;102.872;2022-09-28T11:41:51;25.30;99.90
18575;DHT22;9417;16.484;102.872;2022-09-28T11:44:26;25.30;99.90
18575;DHT22;9417;16.484;102.872;2022-09-28T11:46:50;25.30;99.90
18575;DHT22;9417;16.484;102.872;2022-09-28T11:49:05;25.20;99.90
18575;DHT22;9417;16.484;102.872;2022-09-28T11:51:22;25.20;99.90
18575;DHT22;9417;16.484;102.872;2022-09-28T11:53:33;25.20;99.90
18575;DHT22;9417;16.484;102.872;2022-09-28T11:55:41;25.20;99.90
18575;DHT22;9417;16.484;102.872;2022-09-28T11:57:53;25.20;99.90
18575;DHT22;9417;16.484;102.872;2022-09-28T12:00:05;25.20;99.90
18575;DHT22;9417;16.484;102.872;2022-09-28T12:02:23;25.20;99.90
18575;DHT22;9417;16.484;102.872;2022-09-28T12:04:43;25.20;99.90
18575;DHT22;9417;16.484;102.872;2022-09-28T12:07:00;25.20;99.90
18575;DHT22;9417;16.484;102.872;2022-09-28T12:09:15;25.20;99.90
18575;DHT22;9417;16.484;102.872;2022-09-28T12:11:35;25.10;99.90
18575;DHT22;9417;16.484;102.872;2022-09-28T12:13:52;25.10;99.90
18575;DHT22;9417;16.484;102.872;2022-09-28T12:16:02;25.10;99.90
18575;DHT22;9417;16.484;102.872;2022-09-28T12:18:37;25.10;99.90
18575;DHT22;9417;16.484;102.872;2022-09-28T12:20:49;25.20;99.90
18575;DHT22;9417;16.484;102.872;2022-09-28T12:23:06;25.20;99.90
18575;DHT22;9417;16.484;102.872;2022-09-28T12:25:17;25.20;99.90
18575;DHT22;9417;16.484;102.872;2022-09-28T12:27:30;25.20;99.90
18575;DHT22;9417;16.484;102.872;2022-09-28T12:29:44;25.20;99.90
18575;DHT22;9417;16.484;102.872;2022-09-28T12:31:58;25.20;99.90
18575;DHT22;9417;16.484;102.872;2022-09-28T12:34:09;25.30;99.90
18575;DHT22;9417;16.484;102.872;2022-09-28T12:36:25;25.30;99.90
18575;DHT22;9417;16.484;102.872;2022-09-28T12:38:54;25.20;99.90
18575;DHT22;9417;16.484;102.872;2022-09-28T12:41:30;25.20;99.90
18575;DHT22;9417;16.484;102.872;2022-09-28T12:44:04;25.20;99.90
18575;DHT22;9417;16.484;102.872;2022-09-28T12:46:32;25.20;99.90
18575;DHT22;9417;16.484;102.872;2022-09-28T12:51:46;25.20;99.90
18575;DHT22;9417;16.484;102.872;2022-09-28T12:54:09;25.20;99.90
18575;DHT22;9417;16.484;102.872;2022-09-28T12:56:27;25.20;99.90
18575;DHT22;9417;16.484;102.872;2022-09-28T12:58:46;25.20;99.90
18575;DHT22;9417;16.484;102.872;2022-09-28T13:01:12;25.10;99.90
18575;DHT22;9417;16.484;102.872;2022-09-28T13:03:48;25.10;99.90
18575;DHT22;9417;16.484;102.872;2022-09-28T13:06:18;25.00;99.90
18575;DHT22;9417;16.484;102.872;2022-09-28T13:08:34;25.00;99.90
18575;DHT22;9417;16.484;102.872;2022-09-28T13:10:53;25.00;99.90
18575;DHT22;9417;16.484;102.872;2022-09-28T13:13:19;25.00;99.90
18575;DHT22;9417;16.484;102.872;2022-09-28T13:15:42;25.00;99.90
18575;DHT22;9417;16.484;102.872;2022-09-28T13:17:59;24.90;99.90
18575;DHT22;9417;16.484;102.872;2022-09-28T13:20:25;24.90;99.90
18575;DHT22;9417;16.484;102.872;2022-09-28T13:22:42;24.90;99.90
18575;DHT22;9417;16.484;102.872;2022-09-28T13:24:54;24.90;99.90
18575;DHT22;9417;16.484;102.872;2022-09-28T13:27:07;24.90;99.90
18575;DHT22;9417;16.484;102.872;2022-09-28T13:29:17;24.90;99.90
18575;DHT22;9417;16.484;102.872;2022-09-28T13:31:25;24.90;99.90
18575;DHT22;9417;16.484;102.872;2022-09-28T13:33:41;24.80;99.90
18575;DHT22;9417;16.484;102.872;2022-09-28T13:35:50;24.80;99.90
18575;DHT22;9417;16.484;102.872;2022-09-28T13:41:15;24.80;99.90
18575;DHT22;9417;16.484;102.872;2022-09-28T13:43:30;24.80;99.90
18575;DHT22;9417;16.484;102.872;2022-09-28T13:45:51;24.80;99.90
18575;DHT22;9417;16.484;102.872;2022-09-28T13:48:10;24.80;99.90
18575;DHT22;9417;16.484;102.872;2022-09-28T13:50:26;24.80;99.90
18575;DHT22;9417;16.484;102.872;2022-09-28T13:52:43;24.80;99.90
18575;DHT22;9417;16.484;102.872;2022-09-28T13:55:06;24.80;99.90
18575;DHT22;9417;16.484;102.872;2022-09-28T13:57:21;24.80;99.90
18575;DHT22;9417;16.484;102.872;2022-09-28T13:59:32;24.80;99.90
18575;DHT22;9417;16.484;102.872;2022-09-28T14:01:41;24.80;99.90
18575;DHT22;9417;16.484;102.872;2022-09-28T14:03:55;24.80;99.90
18575;DHT22;9417;16.484;102.872;2022-09-28T14:06:23;24.80;99.90
18575;DHT22;9417;16.484;102.872;2022-09-28T14:08:34;24.80;99.90
18575;DHT22;9417;16.484;102.872;2022-09-28T14:10:49;24.80;99.90
18575;DHT22;9417;16.484;102.872;2022-09-28T14:12:57;24.80;99.90
18575;DHT22;9417;16.484;102.872;2022-09-28T14:15:41;24.80;99.90
18575;DHT22;9417;16.484;102.872;2022-09-28T14:18:09;24.80;99.90
18575;DHT22;9417;16.484;102.872;2022-09-28T14:20:21;24.80;99.90
18575;DHT22;9417;16.484;102.872;2022-09-28T14:22:32;24.80;99.90
18575;DHT22;9417;16.484;102.872;2022-09-28T14:24:54;24.80;99.90
18575;DHT22;9417;16.484;102.872;2022-09-28T14:27:28;24.80;99.90
18575;DHT22;9417;16.484;102.872;2022-09-28T14:29:37;24.80;99.90
18575;DHT22;9417;16.484;102.872;2022-09-28T14:31:46;24.80;99.90
18575;DHT22;9417;16.484;102.872;2022-09-28T14:33:58;24.80;99.90
18575;DHT22;9417;16.484;102.872;2022-09-28T14:36:07;24.80;99.90
18575;DHT22;9417;16.484;102.872;2022-09-28T14:38:48;24.80;99.90
18575;DHT22;9417;16.484;102.872;2022-09-28T14:41:28;24.80;99.90
18575;DHT22;9417;16.484;102.872;2022-09-28T14:44:05;24.80;99.90
18575;DHT22;9417;16.484;102.872;2022-09-28T14:46:48;24.80;99.90
18575;DHT22;9417;16.484;102.872;2022-09-28T14:48:56;24.80;99.90